sensor_id;sensor_type;location;lat;lon;timestamp;P1;durP1;ratioP1;P2;durP2;ratioP2
73850;SDS011;62190;51.548;5.688;2022-09-01T00:01:48;5.17;;;0.85;;
73850;SDS011;62190;51.548;5.688;2022-09-01T00:04:23;3.87;;;1.00;;
73850;SDS011;62190;51.548;5.688;2022-09-01T00:06:47;4.45;;;0.90;;
73850;SDS011;62190;51.548;5.688;2022-09-01T00:09:17;2.17;;;0.80;;
73850;SDS011;62190;51.548;5.688;2022-09-01T00:11:48;3.75;;;1.10;;
73850;SDS011;62190;51.548;5.688;2022-09-01T00:14:19;4.87;;;1.05;;
73850;SDS011;62190;51.548;5.688;2022-09-01T00:16:47;5.65;;;0.90;;
73850;SDS011;62190;51.548;5.688;2022-09-01T00:19:15;7.87;;;1.20;;
73850;SDS011;62190;51.548;5.688;2022-09-01T00:21:43;4.80;;;1.25;;
73850;SDS011;62190;51.548;5.688;2022-09-01T00:24:11;3.33;;;0.80;;
73850;SDS011;62190;51.548;5.688;2022-09-01T00:26:40;2.75;;;1.20;;
73850;SDS011;62190;51.548;5.688;2022-09-01T00:29:08;4.10;;;1.05;;
73850;SDS011;62190;51.548;5.688;2022-09-01T00:31:38;5.92;;;1.10;;
73850;SDS011;62190;51.548;5.688;2022-09-01T00:34:07;2.22;;;1.10;;
73850;SDS011;62190;51.548;5.688;2022-09-01T00:36:34;1.87;;;1.10;;
73850;SDS011;62190;51.548;5.688;2022-09-01T00:39:04;5.17;;;1.20;;
73850;SDS011;62190;51.548;5.688;2022-09-01T00:41:33;3.50;;;1.27;;
73850;SDS011;62190;51.548;5.688;2022-09-01T00:44:08;6.83;;;1.55;;
73850;SDS011;62190;51.548;5.688;2022-09-01T00:46:40;3.47;;;1.10;;
73850;SDS011;62190;51.548;5.688;2022-09-01T00:49:18;4.47;;;1.35;;
73850;SDS011;62190;51.548;5.688;2022-09-01T00:51:43;3.05;;;0.70;;
73850;SDS011;62190;51.548;5.688;2022-09-01T00:54:15;2.45;;;1.00;;
73850;SDS011;62190;51.548;5.688;2022-09-01T00:56:44;2.58;;;1.22;;
73850;SDS011;62190;51.548;5.688;2022-09-01T00:59:13;2.60;;;0.82;;
73850;SDS011;62190;51.548;5.688;2022-09-01T01:01:44;1.87;;;1.22;;
73850;SDS011;62190;51.548;5.688;2022-09-01T01:04:11;4.85;;;1.00;;
73850;SDS011;62190;51.548;5.688;2022-09-01T01:06:45;1.57;;;0.90;;
73850;SDS011;62190;51.548;5.688;2022-09-01T01:09:11;3.17;;;1.00;;
73850;SDS011;62190;51.548;5.688;2022-09-01T01:11:39;1.50;;;0.75;;
73850;SDS011;62190;51.548;5.688;2022-09-01T01:14:10;2.15;;;0.78;;
73850;SDS011;62190;51.548;5.688;2022-09-01T01:16:41;3.20;;;0.72;;
73850;SDS011;62190;51.548;5.688;2022-09-01T01:19:21;1.80;;;1.00;;
73850;SDS011;62190;51.548;5.688;2022-09-01T01:22:27;3.45;;;1.10;;
73850;SDS011;62190;51.548;5.688;2022-09-01T01:25:14;1.37;;;0.85;;
73850;SDS011;62190;51.548;5.688;2022-09-01T01:27:42;3.22;;;0.95;;
73850;SDS011;62190;51.548;5.688;2022-09-01T01:30:11;2.45;;;1.00;;
73850;SDS011;62190;51.548;5.688;2022-09-01T01:32:39;4.53;;;0.98;;
73850;SDS011;62190;51.548;5.688;2022-09-01T01:35:08;1.50;;;0.65;;
73850;SDS011;62190;51.548;5.688;2022-09-01T01:37:42;2.83;;;1.00;;
73850;SDS011;62190;51.548;5.688;2022-09-01T01:40:13;2.67;;;1.10;;
73850;SDS011;62190;51.548;5.688;2022-09-01T01:42:47;1.85;;;0.93;;
73850;SDS011;62190;51.548;5.688;2022-09-01T01:45:17;2.55;;;1.02;;
73850;SDS011;62190;51.548;5.688;2022-09-01T01:47:47;3.45;;;0.80;;
73850;SDS011;62190;51.548;5.688;2022-09-01T01:50:21;4.83;;;1.00;;
73850;SDS011;62190;51.548;5.688;2022-09-01T01:52:52;1.37;;;0.70;;
73850;SDS011;62190;51.548;5.688;2022-09-01T01:55:23;3.45;;;1.00;;
73850;SDS011;62190;51.548;5.688;2022-09-01T01:57:56;2.90;;;0.70;;
73850;SDS011;62190;51.548;5.688;2022-09-01T02:00:27;4.22;;;1.17;;
73850;SDS011;62190;51.548;5.688;2022-09-01T02:02:57;3.83;;;1.00;;
73850;SDS011;62190;51.548;5.688;2022-09-01T02:05:28;2.90;;;0.82;;
73850;SDS011;62190;51.548;5.688;2022-09-01T02:08:03;3.05;;;1.02;;
73850;SDS011;62190;51.548;5.688;2022-09-01T02:10:40;4.03;;;1.00;;
73850;SDS011;62190;51.548;5.688;2022-09-01T02:13:14;6.45;;;1.00;;
73850;SDS011;62190;51.548;5.688;2022-09-01T02:15:44;2.90;;;0.90;;
73850;SDS011;62190;51.548;5.688;2022-09-01T02:18:18;3.12;;;1.32;;
73850;SDS011;62190;51.548;5.688;2022-09-01T02:20:47;1.52;;;0.80;;
73850;SDS011;62190;51.548;5.688;2022-09-01T02:23:15;3.33;;;1.02;;
73850;SDS011;62190;51.548;5.688;2022-09-01T02:25:49;3.90;;;0.90;;
73850;SDS011;62190;51.548;5.688;2022-09-01T02:28:18;3.85;;;1.10;;
73850;SDS011;62190;51.548;5.688;2022-09-01T02:30:48;3.60;;;1.30;;
73850;SDS011;62190;51.548;5.688;2022-09-01T02:33:19;1.95;;;0.98;;
73850;SDS011;62190;51.548;5.688;2022-09-01T02:35:51;3.40;;;1.07;;
73850;SDS011;62190;51.548;5.688;2022-09-01T02:38:19;4.87;;;1.20;;
73850;SDS011;62190;51.548;5.688;2022-09-01T02:40:48;2.22;;;0.90;;
73850;SDS011;62190;51.548;5.688;2022-09-01T02:43:18;3.65;;;1.00;;
73850;SDS011;62190;51.548;5.688;2022-09-01T02:45:50;3.15;;;1.20;;
73850;SDS011;62190;51.548;5.688;2022-09-01T02:48:20;5.42;;;1.32;;
73850;SDS011;62190;51.548;5.688;2022-09-01T02:50:54;2.58;;;1.22;;
73850;SDS011;62190;51.548;5.688;2022-09-01T02:53:23;2.45;;;1.00;;
73850;SDS011;62190;51.548;5.688;2022-09-01T02:55:52;2.50;;;1.10;;
73850;SDS011;62190;51.548;5.688;2022-09-01T02:58:21;2.10;;;0.98;;
73850;SDS011;62190;51.548;5.688;2022-09-01T03:00:51;4.28;;;1.47;;
73850;SDS011;62190;51.548;5.688;2022-09-01T03:03:18;4.08;;;1.20;;
73850;SDS011;62190;51.548;5.688;2022-09-01T03:05:47;5.30;;;1.00;;
73850;SDS011;62190;51.548;5.688;2022-09-01T03:08:17;1.80;;;1.15;;
73850;SDS011;62190;51.548;5.688;2022-09-01T03:10:46;2.45;;;1.25;;
73850;SDS011;62190;51.548;5.688;2022-09-01T03:13:17;3.50;;;1.47;;
73850;SDS011;62190;51.548;5.688;2022-09-01T03:15:47;3.45;;;1.57;;
73850;SDS011;62190;51.548;5.688;2022-09-01T03:18:14;2.30;;;1.00;;
73850;SDS011;62190;51.548;5.688;2022-09-01T03:20:44;3.22;;;1.40;;
73850;SDS011;62190;51.548;5.688;2022-09-01T03:23:15;2.52;;;1.30;;
73850;SDS011;62190;51.548;5.688;2022-09-01T03:25:44;3.47;;;1.10;;
73850;SDS011;62190;51.548;5.688;2022-09-01T03:28:14;2.98;;;1.15;;
73850;SDS011;62190;51.548;5.688;2022-09-01T03:30:44;3.15;;;1.20;;
73850;SDS011;62190;51.548;5.688;2022-09-01T03:33:13;3.58;;;1.32;;
73850;SDS011;62190;51.548;5.688;2022-09-01T03:35:43;2.05;;;1.32;;
73850;SDS011;62190;51.548;5.688;2022-09-01T03:38:11;3.05;;;1.10;;
73850;SDS011;62190;51.548;5.688;2022-09-01T03:40:42;2.65;;;1.00;;
73850;SDS011;62190;51.548;5.688;2022-09-01T03:43:13;6.47;;;1.37;;
73850;SDS011;62190;51.548;5.688;2022-09-01T03:45:41;3.58;;;1.12;;
73850;SDS011;62190;51.548;5.688;2022-09-01T03:48:11;2.58;;;1.42;;
73850;SDS011;62190;51.548;5.688;2022-09-01T03:50:40;2.85;;;1.02;;
73850;SDS011;62190;51.548;5.688;2022-09-01T03:53:12;2.47;;;1.30;;
73850;SDS011;62190;51.548;5.688;2022-09-01T03:55:42;3.72;;;1.37;;
73850;SDS011;62190;51.548;5.688;2022-09-01T03:58:10;5.28;;;1.32;;
73850;SDS011;62190;51.548;5.688;2022-09-01T04:00:41;3.08;;;1.07;;
73850;SDS011;62190;51.548;5.688;2022-09-01T04:03:11;2.60;;;1.25;;
73850;SDS011;62190;51.548;5.688;2022-09-01T04:05:42;3.87;;;1.40;;
73850;SDS011;62190;51.548;5.688;2022-09-01T04:08:13;4.37;;;1.20;;
73850;SDS011;62190;51.548;5.688;2022-09-01T04:10:48;2.42;;;1.25;;
73850;SDS011;62190;51.548;5.688;2022-09-01T04:13:17;2.90;;;1.57;;
73850;SDS011;62190;51.548;5.688;2022-09-01T04:15:47;2.50;;;1.65;;
73850;SDS011;62190;51.548;5.688;2022-09-01T04:18:15;4.90;;;1.45;;
73850;SDS011;62190;51.548;5.688;2022-09-01T04:20:47;3.35;;;1.02;;
73850;SDS011;62190;51.548;5.688;2022-09-01T04:23:18;2.90;;;1.30;;
73850;SDS011;62190;51.548;5.688;2022-09-01T04:26:00;4.65;;;1.72;;
73850;SDS011;62190;51.548;5.688;2022-09-01T04:28:39;5.03;;;1.30;;
73850;SDS011;62190;51.548;5.688;2022-09-01T04:31:12;4.95;;;1.55;;
73850;SDS011;62190;51.548;5.688;2022-09-01T04:33:42;3.08;;;1.30;;
73850;SDS011;62190;51.548;5.688;2022-09-01T04:36:18;8.48;;;1.35;;
73850;SDS011;62190;51.548;5.688;2022-09-01T04:38:53;5.65;;;1.42;;
73850;SDS011;62190;51.548;5.688;2022-09-01T04:41:21;5.15;;;1.40;;
73850;SDS011;62190;51.548;5.688;2022-09-01T04:43:52;5.37;;;1.50;;
73850;SDS011;62190;51.548;5.688;2022-09-01T04:46:20;5.15;;;1.60;;
73850;SDS011;62190;51.548;5.688;2022-09-01T04:48:52;2.27;;;1.02;;
73850;SDS011;62190;51.548;5.688;2022-09-01T04:51:19;6.62;;;1.42;;
73850;SDS011;62190;51.548;5.688;2022-09-01T04:53:49;2.83;;;1.35;;
73850;SDS011;62190;51.548;5.688;2022-09-01T04:56:20;4.05;;;1.20;;
73850;SDS011;62190;51.548;5.688;2022-09-01T04:58:48;4.60;;;1.72;;
73850;SDS011;62190;51.548;5.688;2022-09-01T05:01:20;3.72;;;1.27;;
73850;SDS011;62190;51.548;5.688;2022-09-01T05:03:49;2.90;;;1.30;;
73850;SDS011;62190;51.548;5.688;2022-09-01T05:06:27;4.97;;;1.27;;
73850;SDS011;62190;51.548;5.688;2022-09-01T05:08:58;3.75;;;1.25;;
73850;SDS011;62190;51.548;5.688;2022-09-01T05:11:28;3.22;;;1.10;;
73850;SDS011;62190;51.548;5.688;2022-09-01T05:13:59;4.35;;;1.40;;
73850;SDS011;62190;51.548;5.688;2022-09-01T05:16:31;5.75;;;1.22;;
73850;SDS011;62190;51.548;5.688;2022-09-01T05:19:04;5.03;;;1.40;;
73850;SDS011;62190;51.548;5.688;2022-09-01T05:21:36;5.15;;;1.50;;
73850;SDS011;62190;51.548;5.688;2022-09-01T05:24:04;3.92;;;1.15;;
73850;SDS011;62190;51.548;5.688;2022-09-01T05:26:33;4.05;;;1.40;;
73850;SDS011;62190;51.548;5.688;2022-09-01T05:29:03;3.60;;;1.45;;
73850;SDS011;62190;51.548;5.688;2022-09-01T05:31:39;1.82;;;1.20;;
73850;SDS011;62190;51.548;5.688;2022-09-01T05:34:07;3.47;;;1.55;;
73850;SDS011;62190;51.548;5.688;2022-09-01T05:36:36;4.87;;;1.42;;
73850;SDS011;62190;51.548;5.688;2022-09-01T05:39:06;3.83;;;1.30;;
73850;SDS011;62190;51.548;5.688;2022-09-01T05:41:38;3.90;;;1.45;;
73850;SDS011;62190;51.548;5.688;2022-09-01T05:44:09;2.33;;;1.20;;
73850;SDS011;62190;51.548;5.688;2022-09-01T05:46:37;5.08;;;1.92;;
73850;SDS011;62190;51.548;5.688;2022-09-01T05:49:05;2.67;;;1.50;;
73850;SDS011;62190;51.548;5.688;2022-09-01T05:51:36;2.85;;;1.25;;
73850;SDS011;62190;51.548;5.688;2022-09-01T05:54:07;3.25;;;1.30;;
73850;SDS011;62190;51.548;5.688;2022-09-01T05:56:36;1.92;;;0.90;;
73850;SDS011;62190;51.548;5.688;2022-09-01T05:59:09;3.85;;;1.17;;
73850;SDS011;62190;51.548;5.688;2022-09-01T06:01:36;3.17;;;1.60;;
73850;SDS011;62190;51.548;5.688;2022-09-01T06:04:06;2.37;;;1.00;;
73850;SDS011;62190;51.548;5.688;2022-09-01T06:06:37;5.42;;;1.10;;
73850;SDS011;62190;51.548;5.688;2022-09-01T06:09:11;3.42;;;1.20;;
73850;SDS011;62190;51.548;5.688;2022-09-01T06:11:43;6.17;;;1.20;;
73850;SDS011;62190;51.548;5.688;2022-09-01T06:14:13;5.53;;;1.10;;
73850;SDS011;62190;51.548;5.688;2022-09-01T06:16:45;2.92;;;1.10;;
73850;SDS011;62190;51.548;5.688;2022-09-01T06:19:14;5.28;;;1.15;;
73850;SDS011;62190;51.548;5.688;2022-09-01T06:21:43;3.83;;;1.67;;
73850;SDS011;62190;51.548;5.688;2022-09-01T06:24:13;5.58;;;1.25;;
73850;SDS011;62190;51.548;5.688;2022-09-01T06:26:42;2.65;;;1.20;;
73850;SDS011;62190;51.548;5.688;2022-09-01T06:29:10;2.42;;;1.20;;
73850;SDS011;62190;51.548;5.688;2022-09-01T06:31:40;4.35;;;1.17;;
73850;SDS011;62190;51.548;5.688;2022-09-01T06:34:10;5.87;;;1.25;;
73850;SDS011;62190;51.548;5.688;2022-09-01T06:36:42;4.12;;;1.30;;
73850;SDS011;62190;51.548;5.688;2022-09-01T06:39:11;2.75;;;1.15;;
73850;SDS011;62190;51.548;5.688;2022-09-01T06:41:40;5.37;;;1.50;;
73850;SDS011;62190;51.548;5.688;2022-09-01T06:44:09;2.08;;;1.40;;
73850;SDS011;62190;51.548;5.688;2022-09-01T06:46:36;5.35;;;1.65;;
73850;SDS011;62190;51.548;5.688;2022-09-01T06:49:04;5.22;;;1.80;;
73850;SDS011;62190;51.548;5.688;2022-09-01T06:51:33;5.22;;;1.00;;
73850;SDS011;62190;51.548;5.688;2022-09-01T06:54:01;3.98;;;1.07;;
73850;SDS011;62190;51.548;5.688;2022-09-01T06:56:29;3.52;;;1.42;;
73850;SDS011;62190;51.548;5.688;2022-09-01T06:58:59;5.42;;;1.32;;
73850;SDS011;62190;51.548;5.688;2022-09-01T07:01:29;4.15;;;1.20;;
73850;SDS011;62190;51.548;5.688;2022-09-01T07:03:56;3.12;;;1.00;;
73850;SDS011;62190;51.548;5.688;2022-09-01T07:06:24;2.00;;;1.30;;
73850;SDS011;62190;51.548;5.688;2022-09-01T07:08:56;9.35;;;1.52;;
73850;SDS011;62190;51.548;5.688;2022-09-01T07:11:32;6.37;;;1.20;;
73850;SDS011;62190;51.548;5.688;2022-09-01T07:13:58;5.72;;;1.20;;
73850;SDS011;62190;51.548;5.688;2022-09-01T07:16:29;4.15;;;1.65;;
73850;SDS011;62190;51.548;5.688;2022-09-01T07:18:59;2.12;;;1.07;;
73850;SDS011;62190;51.548;5.688;2022-09-01T07:21:29;4.00;;;1.17;;
73850;SDS011;62190;51.548;5.688;2022-09-01T07:23:56;3.62;;;1.10;;
73850;SDS011;62190;51.548;5.688;2022-09-01T07:26:26;4.15;;;1.45;;
73850;SDS011;62190;51.548;5.688;2022-09-01T07:28:54;4.72;;;1.35;;
73850;SDS011;62190;51.548;5.688;2022-09-01T07:31:23;3.27;;;1.05;;
73850;SDS011;62190;51.548;5.688;2022-09-01T07:33:53;3.98;;;1.45;;
73850;SDS011;62190;51.548;5.688;2022-09-01T07:36:23;4.47;;;1.12;;
73850;SDS011;62190;51.548;5.688;2022-09-01T07:38:51;3.65;;;1.30;;
73850;SDS011;62190;51.548;5.688;2022-09-01T07:41:22;3.75;;;1.42;;
73850;SDS011;62190;51.548;5.688;2022-09-01T07:43:51;3.65;;;1.27;;
73850;SDS011;62190;51.548;5.688;2022-09-01T07:46:22;4.60;;;1.20;;
73850;SDS011;62190;51.548;5.688;2022-09-01T07:48:55;5.70;;;1.35;;
73850;SDS011;62190;51.548;5.688;2022-09-01T07:51:20;4.80;;;1.40;;
73850;SDS011;62190;51.548;5.688;2022-09-01T07:53:48;4.60;;;1.22;;
73850;SDS011;62190;51.548;5.688;2022-09-01T07:56:17;5.15;;;1.42;;
73850;SDS011;62190;51.548;5.688;2022-09-01T07:58:45;4.33;;;1.25;;
73850;SDS011;62190;51.548;5.688;2022-09-01T08:01:15;6.40;;;1.42;;
73850;SDS011;62190;51.548;5.688;2022-09-01T08:03:51;5.37;;;1.15;;
73850;SDS011;62190;51.548;5.688;2022-09-01T08:06:21;2.77;;;1.30;;
73850;SDS011;62190;51.548;5.688;2022-09-01T08:08:53;5.42;;;1.35;;
73850;SDS011;62190;51.548;5.688;2022-09-01T08:11:22;4.62;;;1.20;;
73850;SDS011;62190;51.548;5.688;2022-09-01T08:13:51;6.45;;;1.20;;
73850;SDS011;62190;51.548;5.688;2022-09-01T08:16:20;8.50;;;1.40;;
73850;SDS011;62190;51.548;5.688;2022-09-01T08:18:48;5.42;;;1.37;;
73850;SDS011;62190;51.548;5.688;2022-09-01T08:21:16;3.47;;;1.10;;
73850;SDS011;62190;51.548;5.688;2022-09-01T08:23:46;3.70;;;1.20;;
73850;SDS011;62190;51.548;5.688;2022-09-01T08:26:15;3.90;;;1.22;;
73850;SDS011;62190;51.548;5.688;2022-09-01T08:28:44;6.25;;;1.35;;
73850;SDS011;62190;51.548;5.688;2022-09-01T08:31:12;3.55;;;1.17;;
73850;SDS011;62190;51.548;5.688;2022-09-01T08:33:42;4.17;;;0.93;;
73850;SDS011;62190;51.548;5.688;2022-09-01T08:36:12;5.80;;;1.50;;
73850;SDS011;62190;51.548;5.688;2022-09-01T08:38:41;5.92;;;1.30;;
73850;SDS011;62190;51.548;5.688;2022-09-01T08:41:17;3.45;;;1.30;;
73850;SDS011;62190;51.548;5.688;2022-09-01T08:43:48;3.60;;;1.07;;
73850;SDS011;62190;51.548;5.688;2022-09-01T08:46:23;8.45;;;1.10;;
73850;SDS011;62190;51.548;5.688;2022-09-01T08:48:52;5.90;;;1.00;;
73850;SDS011;62190;51.548;5.688;2022-09-01T08:51:29;2.55;;;0.95;;
73850;SDS011;62190;51.548;5.688;2022-09-01T08:54:15;3.70;;;1.12;;
73850;SDS011;62190;51.548;5.688;2022-09-01T08:56:43;6.78;;;1.27;;
73850;SDS011;62190;51.548;5.688;2022-09-01T08:59:11;5.80;;;1.22;;
73850;SDS011;62190;51.548;5.688;2022-09-01T09:01:44;3.17;;;0.98;;
73850;SDS011;62190;51.548;5.688;2022-09-01T09:07:12;5.12;;;1.37;;
73850;SDS011;62190;51.548;5.688;2022-09-01T09:09:44;4.30;;;0.88;;
73850;SDS011;62190;51.548;5.688;2022-09-01T09:17:49;4.30;;;0.98;;
73850;SDS011;62190;51.548;5.688;2022-09-01T09:20:22;2.35;;;0.70;;
73850;SDS011;62190;51.548;5.688;2022-09-01T09:22:48;4.55;;;0.80;;
73850;SDS011;62190;51.548;5.688;2022-09-01T09:25:17;4.08;;;1.10;;
73850;SDS011;62190;51.548;5.688;2022-09-01T09:27:48;3.17;;;0.60;;
73850;SDS011;62190;51.548;5.688;2022-09-01T09:30:20;3.47;;;0.80;;
73850;SDS011;62190;51.548;5.688;2022-09-01T09:32:58;8.13;;;1.10;;
73850;SDS011;62190;51.548;5.688;2022-09-01T09:35:29;2.87;;;1.00;;
73850;SDS011;62190;51.548;5.688;2022-09-01T09:40:54;2.15;;;0.60;;
73850;SDS011;62190;51.548;5.688;2022-09-01T09:43:26;1.90;;;0.60;;
73850;SDS011;62190;51.548;5.688;2022-09-01T09:51:55;3.40;;;0.60;;
73850;SDS011;62190;51.548;5.688;2022-09-01T09:54:31;2.95;;;0.70;;
73850;SDS011;62190;51.548;5.688;2022-09-01T09:57:12;2.92;;;0.70;;
73850;SDS011;62190;51.548;5.688;2022-09-01T09:59:45;5.05;;;0.80;;
73850;SDS011;62190;51.548;5.688;2022-09-01T10:07:53;4.03;;;0.60;;
73850;SDS011;62190;51.548;5.688;2022-09-01T10:10:35;2.77;;;0.60;;
73850;SDS011;62190;51.548;5.688;2022-09-01T10:12:56;2.98;;;0.72;;
73850;SDS011;62190;51.548;5.688;2022-09-01T10:15:28;3.70;;;0.65;;
73850;SDS011;62190;51.548;5.688;2022-09-01T10:17:58;2.83;;;0.60;;
73850;SDS011;62190;51.548;5.688;2022-09-01T10:20:25;2.58;;;0.80;;
73850;SDS011;62190;51.548;5.688;2022-09-01T10:22:57;2.83;;;0.70;;
73850;SDS011;62190;51.548;5.688;2022-09-01T10:25:25;4.55;;;0.88;;
73850;SDS011;62190;51.548;5.688;2022-09-01T10:28:32;1.95;;;0.72;;
73850;SDS011;62190;51.548;5.688;2022-09-01T10:30:34;1.72;;;0.60;;
73850;SDS011;62190;51.548;5.688;2022-09-01T10:33:05;4.70;;;1.05;;
73850;SDS011;62190;51.548;5.688;2022-09-01T10:35:34;3.00;;;0.53;;
73850;SDS011;62190;51.548;5.688;2022-09-01T10:38:08;3.25;;;0.60;;
73850;SDS011;62190;51.548;5.688;2022-09-01T10:40:42;2.58;;;0.65;;
73850;SDS011;62190;51.548;5.688;2022-09-01T10:48:52;7.12;;;0.90;;
73850;SDS011;62190;51.548;5.688;2022-09-01T10:56:38;2.55;;;0.60;;
73850;SDS011;62190;51.548;5.688;2022-09-01T11:09:32;1.75;;;0.57;;
73850;SDS011;62190;51.548;5.688;2022-09-01T11:20:23;0.73;;;0.40;;
73850;SDS011;62190;51.548;5.688;2022-09-01T11:25:38;2.22;;;0.45;;
73850;SDS011;62190;51.548;5.688;2022-09-01T11:47:12;1.98;;;0.40;;
73850;SDS011;62190;51.548;5.688;2022-09-01T11:49:52;3.60;;;0.60;;
73850;SDS011;62190;51.548;5.688;2022-09-01T11:52:18;1.25;;;0.42;;
73850;SDS011;62190;51.548;5.688;2022-09-01T11:54:47;0.80;;;0.40;;
73850;SDS011;62190;51.548;5.688;2022-09-01T11:57:34;3.15;;;0.30;;
73850;SDS011;62190;51.548;5.688;2022-09-01T11:59:48;1.40;;;0.35;;
73850;SDS011;62190;51.548;5.688;2022-09-01T12:02:20;0.53;;;0.30;;
73850;SDS011;62190;51.548;5.688;2022-09-01T12:04:49;1.85;;;0.40;;
73850;SDS011;62190;51.548;5.688;2022-09-01T12:10:29;1.87;;;0.30;;
73850;SDS011;62190;51.548;5.688;2022-09-01T12:12:49;0.75;;;0.40;;
73850;SDS011;62190;51.548;5.688;2022-09-01T12:15:38;3.20;;;0.40;;
73850;SDS011;62190;51.548;5.688;2022-09-01T12:18:15;1.80;;;0.40;;
73850;SDS011;62190;51.548;5.688;2022-09-01T12:20:46;2.72;;;0.50;;
73850;SDS011;62190;51.548;5.688;2022-09-01T12:23:17;2.02;;;0.40;;
73850;SDS011;62190;51.548;5.688;2022-09-01T12:26:19;1.85;;;0.40;;
73850;SDS011;62190;51.548;5.688;2022-09-01T12:28:34;1.25;;;0.50;;
73850;SDS011;62190;51.548;5.688;2022-09-01T12:31:11;1.42;;;0.35;;
73850;SDS011;62190;51.548;5.688;2022-09-01T12:33:43;1.32;;;0.40;;
73850;SDS011;62190;51.548;5.688;2022-09-01T12:36:17;3.40;;;0.50;;
73850;SDS011;62190;51.548;5.688;2022-09-01T12:38:51;2.02;;;0.40;;
73850;SDS011;62190;51.548;5.688;2022-09-01T12:41:31;0.88;;;0.40;;
73850;SDS011;62190;51.548;5.688;2022-09-01T12:47:05;1.47;;;0.45;;
73850;SDS011;62190;51.548;5.688;2022-09-01T12:49:36;1.90;;;0.40;;
73850;SDS011;62190;51.548;5.688;2022-09-01T12:52:27;1.90;;;0.40;;
73850;SDS011;62190;51.548;5.688;2022-09-01T12:54:52;2.05;;;0.88;;
73850;SDS011;62190;51.548;5.688;2022-09-01T12:57:24;1.98;;;0.30;;
73850;SDS011;62190;51.548;5.688;2022-09-01T13:02:45;1.40;;;0.50;;
73850;SDS011;62190;51.548;5.688;2022-09-01T13:08:10;3.60;;;0.50;;
73850;SDS011;62190;51.548;5.688;2022-09-01T13:10:39;2.50;;;0.50;;
73850;SDS011;62190;51.548;5.688;2022-09-01T13:13:08;2.33;;;0.60;;
73850;SDS011;62190;51.548;5.688;2022-09-01T13:15:37;2.55;;;0.30;;
73850;SDS011;62190;51.548;5.688;2022-09-01T13:18:07;2.47;;;0.40;;
73850;SDS011;62190;51.548;5.688;2022-09-01T13:20:35;2.15;;;0.40;;
73850;SDS011;62190;51.548;5.688;2022-09-01T13:23:02;2.15;;;0.50;;
73850;SDS011;62190;51.548;5.688;2022-09-01T13:25:30;0.60;;;0.40;;
73850;SDS011;62190;51.548;5.688;2022-09-01T13:27:57;2.25;;;0.50;;
73850;SDS011;62190;51.548;5.688;2022-09-01T13:30:27;2.47;;;0.78;;
73850;SDS011;62190;51.548;5.688;2022-09-01T13:32:55;3.60;;;0.45;;
73850;SDS011;62190;51.548;5.688;2022-09-01T13:35:24;2.70;;;0.60;;
73850;SDS011;62190;51.548;5.688;2022-09-01T13:37:51;2.52;;;0.60;;
73850;SDS011;62190;51.548;5.688;2022-09-01T13:40:21;2.55;;;0.60;;
73850;SDS011;62190;51.548;5.688;2022-09-01T13:42:49;3.47;;;0.40;;
73850;SDS011;62190;51.548;5.688;2022-09-01T13:45:18;3.33;;;0.75;;
73850;SDS011;62190;51.548;5.688;2022-09-01T13:47:48;3.52;;;0.75;;
73850;SDS011;62190;51.548;5.688;2022-09-01T13:50:18;5.65;;;0.70;;
73850;SDS011;62190;51.548;5.688;2022-09-01T13:52:49;3.90;;;0.65;;
73850;SDS011;62190;51.548;5.688;2022-09-01T13:55:25;2.77;;;0.55;;
73850;SDS011;62190;51.548;5.688;2022-09-01T13:57:53;3.50;;;0.50;;
73850;SDS011;62190;51.548;5.688;2022-09-01T14:00:24;1.07;;;0.50;;
73850;SDS011;62190;51.548;5.688;2022-09-01T14:02:54;2.98;;;0.50;;
73850;SDS011;62190;51.548;5.688;2022-09-01T14:05:26;2.22;;;0.75;;
73850;SDS011;62190;51.548;5.688;2022-09-01T14:07:54;2.92;;;0.85;;
73850;SDS011;62190;51.548;5.688;2022-09-01T14:10:23;2.02;;;0.62;;
73850;SDS011;62190;51.548;5.688;2022-09-01T14:12:52;3.08;;;0.50;;
73850;SDS011;62190;51.548;5.688;2022-09-01T14:15:20;1.35;;;0.40;;
73850;SDS011;62190;51.548;5.688;2022-09-01T14:17:49;2.52;;;0.60;;
73850;SDS011;62190;51.548;5.688;2022-09-01T14:20:20;4.97;;;0.70;;
73850;SDS011;62190;51.548;5.688;2022-09-01T14:22:49;3.77;;;0.82;;
73850;SDS011;62190;51.548;5.688;2022-09-01T14:25:17;2.90;;;0.75;;
73850;SDS011;62190;51.548;5.688;2022-09-01T14:27:45;2.35;;;0.55;;
73850;SDS011;62190;51.548;5.688;2022-09-01T14:30:18;2.60;;;0.57;;
73850;SDS011;62190;51.548;5.688;2022-09-01T14:32:47;3.30;;;0.65;;
73850;SDS011;62190;51.548;5.688;2022-09-01T14:35:15;2.12;;;0.70;;
73850;SDS011;62190;51.548;5.688;2022-09-01T14:37:43;2.70;;;0.70;;
73850;SDS011;62190;51.548;5.688;2022-09-01T14:40:12;2.10;;;0.70;;
73850;SDS011;62190;51.548;5.688;2022-09-01T14:42:41;3.27;;;0.65;;
73850;SDS011;62190;51.548;5.688;2022-09-01T14:45:15;2.33;;;0.60;;
73850;SDS011;62190;51.548;5.688;2022-09-01T14:47:45;2.22;;;0.82;;
73850;SDS011;62190;51.548;5.688;2022-09-01T14:50:13;3.42;;;0.80;;
73850;SDS011;62190;51.548;5.688;2022-09-01T14:52:42;1.57;;;0.40;;
73850;SDS011;62190;51.548;5.688;2022-09-01T14:55:09;1.07;;;0.57;;
73850;SDS011;62190;51.548;5.688;2022-09-01T14:57:36;3.12;;;0.57;;
73850;SDS011;62190;51.548;5.688;2022-09-01T15:00:09;3.40;;;0.80;;
73850;SDS011;62190;51.548;5.688;2022-09-01T15:02:35;3.90;;;0.53;;
73850;SDS011;62190;51.548;5.688;2022-09-01T15:05:04;2.52;;;0.60;;
73850;SDS011;62190;51.548;5.688;2022-09-01T15:07:32;3.15;;;0.80;;
73850;SDS011;62190;51.548;5.688;2022-09-01T15:10:00;3.55;;;0.80;;
73850;SDS011;62190;51.548;5.688;2022-09-01T15:12:27;4.95;;;1.10;;
73850;SDS011;62190;51.548;5.688;2022-09-01T15:14:58;2.37;;;0.72;;
73850;SDS011;62190;51.548;5.688;2022-09-01T15:17:26;4.10;;;0.98;;
73850;SDS011;62190;51.548;5.688;2022-09-01T15:19:54;3.17;;;0.72;;
73850;SDS011;62190;51.548;5.688;2022-09-01T15:22:23;3.17;;;0.85;;
73850;SDS011;62190;51.548;5.688;2022-09-01T15:24:51;1.17;;;0.70;;
73850;SDS011;62190;51.548;5.688;2022-09-01T15:27:18;4.00;;;1.20;;
73850;SDS011;62190;51.548;5.688;2022-09-01T15:29:47;1.65;;;0.70;;
73850;SDS011;62190;51.548;5.688;2022-09-01T15:32:15;1.82;;;0.72;;
73850;SDS011;62190;51.548;5.688;2022-09-01T15:34:43;3.35;;;0.62;;
73850;SDS011;62190;51.548;5.688;2022-09-01T15:37:10;3.62;;;0.65;;
73850;SDS011;62190;51.548;5.688;2022-09-01T15:39:37;6.90;;;1.95;;
73850;SDS011;62190;51.548;5.688;2022-09-01T15:42:04;4.00;;;0.82;;
73850;SDS011;62190;51.548;5.688;2022-09-01T15:44:32;4.53;;;0.90;;
73850;SDS011;62190;51.548;5.688;2022-09-01T15:47:00;4.42;;;0.70;;
73850;SDS011;62190;51.548;5.688;2022-09-01T15:49:27;3.90;;;0.90;;
73850;SDS011;62190;51.548;5.688;2022-09-01T15:51:55;3.45;;;0.82;;
73850;SDS011;62190;51.548;5.688;2022-09-01T15:54:22;3.37;;;1.07;;
73850;SDS011;62190;51.548;5.688;2022-09-01T15:56:51;2.37;;;0.60;;
73850;SDS011;62190;51.548;5.688;2022-09-01T15:59:19;2.75;;;0.70;;
73850;SDS011;62190;51.548;5.688;2022-09-01T16:01:46;1.95;;;0.78;;
73850;SDS011;62190;51.548;5.688;2022-09-01T16:04:14;4.22;;;1.15;;
73850;SDS011;62190;51.548;5.688;2022-09-01T16:06:42;5.25;;;0.72;;
73850;SDS011;62190;51.548;5.688;2022-09-01T16:09:10;4.25;;;0.90;;
73850;SDS011;62190;51.548;5.688;2022-09-01T16:11:38;3.02;;;0.80;;
73850;SDS011;62190;51.548;5.688;2022-09-01T16:14:06;4.33;;;0.90;;
73850;SDS011;62190;51.548;5.688;2022-09-01T16:22:30;4.33;;;0.90;;
73850;SDS011;62190;51.548;5.688;2022-09-01T16:25:01;6.37;;;0.95;;
73850;SDS011;62190;51.548;5.688;2022-09-01T16:27:39;5.10;;;1.17;;
73850;SDS011;62190;51.548;5.688;2022-09-01T16:30:05;2.00;;;0.70;;
73850;SDS011;62190;51.548;5.688;2022-09-01T16:32:38;4.30;;;0.90;;
73850;SDS011;62190;51.548;5.688;2022-09-01T16:35:07;3.98;;;0.88;;
73850;SDS011;62190;51.548;5.688;2022-09-01T16:48:59;2.52;;;0.80;;
73850;SDS011;62190;51.548;5.688;2022-09-01T16:51:37;3.45;;;0.80;;